sensor_id;sensor_type;location;lat;lon;timestamp;P1;durP1;ratioP1;P2;durP2;ratioP2
359;SDS011;168;48.872;9.226;2024-02-14T00:02:23;10.43;;;9.43;;
359;SDS011;168;48.872;9.226;2024-02-14T00:04:51;10.23;;;9.20;;
359;SDS011;168;48.872;9.226;2024-02-14T00:07:18;10.20;;;8.80;;
359;SDS011;168;48.872;9.226;2024-02-14T00:09:46;10.23;;;9.10;;
359;SDS011;168;48.872;9.226;2024-02-14T00:12:13;12.43;;;10.90;;
359;SDS011;168;48.872;9.226;2024-02-14T00:14:42;12.37;;;9.97;;
359;SDS011;168;48.872;9.226;2024-02-14T00:17:09;10.93;;;9.80;;
359;SDS011;168;48.872;9.226;2024-02-14T00:19:38;11.20;;;8.90;;
359;SDS011;168;48.872;9.226;2024-02-14T00:22:05;14.07;;;10.80;;
359;SDS011;168;48.872;9.226;2024-02-14T00:24:32;11.83;;;10.47;;
359;SDS011;168;48.872;9.226;2024-02-14T00:27:01;10.70;;;9.60;;
359;SDS011;168;48.872;9.226;2024-02-14T00:29:29;12.03;;;9.93;;
359;SDS011;168;48.872;9.226;2024-02-14T00:31:57;12.53;;;10.37;;
359;SDS011;168;48.872;9.226;2024-02-14T00:34:25;14.30;;;10.10;;
359;SDS011;168;48.872;9.226;2024-02-14T00:36:52;12.10;;;9.20;;
359;SDS011;168;48.872;9.226;2024-02-14T00:39:19;12.17;;;10.27;;
359;SDS011;168;48.872;9.226;2024-02-14T00:41:46;12.30;;;9.17;;
359;SDS011;168;48.872;9.226;2024-02-14T00:44:14;12.63;;;9.37;;
359;SDS011;168;48.872;9.226;2024-02-14T00:46:44;12.17;;;9.60;;
359;SDS011;168;48.872;9.226;2024-02-14T00:49:13;14.37;;;10.27;;
359;SDS011;168;48.872;9.226;2024-02-14T00:51:40;10.47;;;9.30;;
359;SDS011;168;48.872;9.226;2024-02-14T00:54:07;9.30;;;8.30;;
359;SDS011;168;48.872;9.226;2024-02-14T00:56:35;9.90;;;8.90;;
359;SDS011;168;48.872;9.226;2024-02-14T00:59:02;10.30;;;8.93;;
359;SDS011;168;48.872;9.226;2024-02-14T01:01:29;12.37;;;9.57;;
359;SDS011;168;48.872;9.226;2024-02-14T01:03:56;10.50;;;8.37;;
359;SDS011;168;48.872;9.226;2024-02-14T01:06:25;11.50;;;9.27;;
359;SDS011;168;48.872;9.226;2024-02-14T01:08:53;9.77;;;8.77;;
359;SDS011;168;48.872;9.226;2024-02-14T01:11:20;11.13;;;9.57;;
359;SDS011;168;48.872;9.226;2024-02-14T01:13:47;10.40;;;9.33;;
359;SDS011;168;48.872;9.226;2024-02-14T01:16:15;9.77;;;8.87;;
359;SDS011;168;48.872;9.226;2024-02-14T01:18:42;10.40;;;9.30;;
359;SDS011;168;48.872;9.226;2024-02-14T01:21:09;13.80;;;10.47;;
359;SDS011;168;48.872;9.226;2024-02-14T01:23:38;11.57;;;9.80;;
359;SDS011;168;48.872;9.226;2024-02-14T01:26:05;11.50;;;9.10;;
359;SDS011;168;48.872;9.226;2024-02-14T01:28:32;12.23;;;9.90;;
359;SDS011;168;48.872;9.226;2024-02-14T01:31:00;11.20;;;8.93;;
359;SDS011;168;48.872;9.226;2024-02-14T01:33:27;10.50;;;9.40;;
359;SDS011;168;48.872;9.226;2024-02-14T01:35:56;9.90;;;8.90;;
359;SDS011;168;48.872;9.226;2024-02-14T01:38:24;10.43;;;9.00;;
359;SDS011;168;48.872;9.226;2024-02-14T01:40:53;14.90;;;9.40;;
359;SDS011;168;48.872;9.226;2024-02-14T01:43:20;12.47;;;9.20;;
359;SDS011;168;48.872;9.226;2024-02-14T01:45:47;10.40;;;8.67;;
359;SDS011;168;48.872;9.226;2024-02-14T01:48:15;10.57;;;7.83;;
359;SDS011;168;48.872;9.226;2024-02-14T01:50:44;11.60;;;8.20;;
359;SDS011;168;48.872;9.226;2024-02-14T01:53:11;13.43;;;9.20;;
359;SDS011;168;48.872;9.226;2024-02-14T01:55:39;9.07;;;8.17;;
359;SDS011;168;48.872;9.226;2024-02-14T01:58:08;11.23;;;7.80;;
359;SDS011;168;48.872;9.226;2024-02-14T02:00:36;10.40;;;7.83;;
359;SDS011;168;48.872;9.226;2024-02-14T02:03:04;11.40;;;9.00;;
359;SDS011;168;48.872;9.226;2024-02-14T02:05:32;10.47;;;7.70;;
359;SDS011;168;48.872;9.226;2024-02-14T02:07:59;10.03;;;7.93;;
359;SDS011;168;48.872;9.226;2024-02-14T02:10:27;8.57;;;7.70;;
359;SDS011;168;48.872;9.226;2024-02-14T02:12:57;9.93;;;7.60;;
359;SDS011;168;48.872;9.226;2024-02-14T02:15:27;8.07;;;7.30;;
359;SDS011;168;48.872;9.226;2024-02-14T02:17:55;12.90;;;8.17;;
359;SDS011;168;48.872;9.226;2024-02-14T02:20:23;9.27;;;7.70;;
359;SDS011;168;48.872;9.226;2024-02-14T02:22:54;9.73;;;7.70;;
359;SDS011;168;48.872;9.226;2024-02-14T02:25:22;8.70;;;7.80;;
359;SDS011;168;48.872;9.226;2024-02-14T02:27:51;9.37;;;7.77;;
359;SDS011;168;48.872;9.226;2024-02-14T02:30:19;9.43;;;8.00;;
359;SDS011;168;48.872;9.226;2024-02-14T02:32:46;8.90;;;7.53;;
359;SDS011;168;48.872;9.226;2024-02-14T02:35:13;8.07;;;7.27;;
359;SDS011;168;48.872;9.226;2024-02-14T02:37:41;8.47;;;7.67;;
359;SDS011;168;48.872;9.226;2024-02-14T02:40:12;7.63;;;6.87;;
359;SDS011;168;48.872;9.226;2024-02-14T02:42:40;8.97;;;6.70;;
359;SDS011;168;48.872;9.226;2024-02-14T02:45:07;10.97;;;7.40;;
359;SDS011;168;48.872;9.226;2024-02-14T02:47:35;8.37;;;6.70;;
359;SDS011;168;48.872;9.226;2024-02-14T02:50:02;8.27;;;6.90;;
359;SDS011;168;48.872;9.226;2024-02-14T02:52:31;8.23;;;6.63;;
359;SDS011;168;48.872;9.226;2024-02-14T02:54:58;7.90;;;6.00;;
359;SDS011;168;48.872;9.226;2024-02-14T02:57:28;7.17;;;6.47;;
359;SDS011;168;48.872;9.226;2024-02-14T02:59:57;8.40;;;5.83;;
359;SDS011;168;48.872;9.226;2024-02-14T03:02:24;9.20;;;6.00;;
359;SDS011;168;48.872;9.226;2024-02-14T03:04:52;6.97;;;5.97;;
359;SDS011;168;48.872;9.226;2024-02-14T03:07:19;8.20;;;6.20;;
359;SDS011;168;48.872;9.226;2024-02-14T03:09:48;7.13;;;5.97;;
359;SDS011;168;48.872;9.226;2024-02-14T03:12:16;7.80;;;7.00;;
359;SDS011;168;48.872;9.226;2024-02-14T03:14:45;8.13;;;6.07;;
359;SDS011;168;48.872;9.226;2024-02-14T03:17:13;6.80;;;5.93;;
359;SDS011;168;48.872;9.226;2024-02-14T03:19:40;6.40;;;5.70;;
359;SDS011;168;48.872;9.226;2024-02-14T03:22:07;8.93;;;5.70;;
359;SDS011;168;48.872;9.226;2024-02-14T03:24:35;7.77;;;6.17;;
359;SDS011;168;48.872;9.226;2024-02-14T03:27:03;8.47;;;5.50;;
359;SDS011;168;48.872;9.226;2024-02-14T03:29:31;6.90;;;6.13;;
359;SDS011;168;48.872;9.226;2024-02-14T03:32:02;7.80;;;5.80;;
359;SDS011;168;48.872;9.226;2024-02-14T03:34:30;7.43;;;5.87;;
359;SDS011;168;48.872;9.226;2024-02-14T03:36:59;6.27;;;5.60;;
359;SDS011;168;48.872;9.226;2024-02-14T03:39:28;6.40;;;5.20;;
359;SDS011;168;48.872;9.226;2024-02-14T03:41:56;7.13;;;6.43;;
359;SDS011;168;48.872;9.226;2024-02-14T03:44:24;9.00;;;6.90;;
359;SDS011;168;48.872;9.226;2024-02-14T03:46:51;8.60;;;5.87;;
359;SDS011;168;48.872;9.226;2024-02-14T03:49:20;7.30;;;5.77;;
359;SDS011;168;48.872;9.226;2024-02-14T03:51:48;7.47;;;5.90;;
359;SDS011;168;48.872;9.226;2024-02-14T03:54:18;7.87;;;6.87;;
359;SDS011;168;48.872;9.226;2024-02-14T03:56:45;7.43;;;6.70;;
359;SDS011;168;48.872;9.226;2024-02-14T03:59:14;7.87;;;6.47;;
359;SDS011;168;48.872;9.226;2024-02-14T04:01:44;7.93;;;6.40;;
359;SDS011;168;48.872;9.226;2024-02-14T04:04:11;9.00;;;6.60;;
359;SDS011;168;48.872;9.226;2024-02-14T04:06:40;7.87;;;6.70;;
359;SDS011;168;48.872;9.226;2024-02-14T04:09:08;7.67;;;6.57;;
359;SDS011;168;48.872;9.226;2024-02-14T04:11:35;7.13;;;6.40;;
359;SDS011;168;48.872;9.226;2024-02-14T04:14:02;8.27;;;6.80;;
359;SDS011;168;48.872;9.226;2024-02-14T04:16:29;7.70;;;6.73;;
359;SDS011;168;48.872;9.226;2024-02-14T04:18:57;9.10;;;6.90;;
359;SDS011;168;48.872;9.226;2024-02-14T04:21:24;9.47;;;7.13;;
359;SDS011;168;48.872;9.226;2024-02-14T04:23:52;8.30;;;7.50;;
359;SDS011;168;48.872;9.226;2024-02-14T04:26:20;9.70;;;7.70;;
359;SDS011;168;48.872;9.226;2024-02-14T04:28:47;10.43;;;7.80;;
359;SDS011;168;48.872;9.226;2024-02-14T04:31:15;9.00;;;7.27;;
359;SDS011;168;48.872;9.226;2024-02-14T04:33:42;9.97;;;7.13;;
359;SDS011;168;48.872;9.226;2024-02-14T04:36:12;10.70;;;7.47;;
359;SDS011;168;48.872;9.226;2024-02-14T04:38:39;8.50;;;7.60;;
359;SDS011;168;48.872;9.226;2024-02-14T04:41:08;9.80;;;7.00;;
359;SDS011;168;48.872;9.226;2024-02-14T04:43:35;8.20;;;7.20;;
359;SDS011;168;48.872;9.226;2024-02-14T04:46:03;11.60;;;8.10;;
359;SDS011;168;48.872;9.226;2024-02-14T04:48:32;11.60;;;7.50;;
359;SDS011;168;48.872;9.226;2024-02-14T04:51:00;9.30;;;7.47;;
359;SDS011;168;48.872;9.226;2024-02-14T04:53:27;14.80;;;8.20;;
359;SDS011;168;48.872;9.226;2024-02-14T04:55:54;7.47;;;6.60;;
359;SDS011;168;48.872;9.226;2024-02-14T04:58:23;11.00;;;7.50;;
359;SDS011;168;48.872;9.226;2024-02-14T05:00:52;8.77;;;7.20;;
359;SDS011;168;48.872;9.226;2024-02-14T05:03:20;10.60;;;6.70;;
359;SDS011;168;48.872;9.226;2024-02-14T05:05:49;8.77;;;6.93;;
359;SDS011;168;48.872;9.226;2024-02-14T05:08:17;9.87;;;7.03;;
359;SDS011;168;48.872;9.226;2024-02-14T05:10:44;8.80;;;6.67;;
359;SDS011;168;48.872;9.226;2024-02-14T05:13:12;7.53;;;6.70;;
359;SDS011;168;48.872;9.226;2024-02-14T05:15:42;7.03;;;6.33;;
359;SDS011;168;48.872;9.226;2024-02-14T05:18:09;7.70;;;6.67;;
359;SDS011;168;48.872;9.226;2024-02-14T05:20:37;8.43;;;6.77;;
359;SDS011;168;48.872;9.226;2024-02-14T05:23:05;8.80;;;6.30;;
359;SDS011;168;48.872;9.226;2024-02-14T05:25:32;8.83;;;6.90;;
359;SDS011;168;48.872;9.226;2024-02-14T05:27:59;9.40;;;6.77;;
359;SDS011;168;48.872;9.226;2024-02-14T05:30:26;9.57;;;7.20;;
359;SDS011;168;48.872;9.226;2024-02-14T05:32:55;8.80;;;6.20;;
359;SDS011;168;48.872;9.226;2024-02-14T05:35:22;9.77;;;6.50;;
359;SDS011;168;48.872;9.226;2024-02-14T05:37:49;8.63;;;6.77;;
359;SDS011;168;48.872;9.226;2024-02-14T05:40:17;7.97;;;6.23;;
359;SDS011;168;48.872;9.226;2024-02-14T05:42:44;7.90;;;6.20;;
359;SDS011;168;48.872;9.226;2024-02-14T05:45:12;10.17;;;6.80;;
359;SDS011;168;48.872;9.226;2024-02-14T05:47:39;8.40;;;6.60;;
359;SDS011;168;48.872;9.226;2024-02-14T05:50:09;7.90;;;7.10;;
359;SDS011;168;48.872;9.226;2024-02-14T05:52:38;8.27;;;6.53;;
359;SDS011;168;48.872;9.226;2024-02-14T05:55:06;7.00;;;5.73;;
359;SDS011;168;48.872;9.226;2024-02-14T05:57:34;8.13;;;6.00;;
359;SDS011;168;48.872;9.226;2024-02-14T06:00:02;7.93;;;6.63;;
359;SDS011;168;48.872;9.226;2024-02-14T06:02:30;7.67;;;6.83;;
359;SDS011;168;48.872;9.226;2024-02-14T06:04:57;6.80;;;6.17;;
359;SDS011;168;48.872;9.226;2024-02-14T06:07:26;7.40;;;6.70;;
359;SDS011;168;48.872;9.226;2024-02-14T06:09:53;8.50;;;7.20;;
359;SDS011;168;48.872;9.226;2024-02-14T06:12:21;7.93;;;6.57;;
359;SDS011;168;48.872;9.226;2024-02-14T06:14:48;8.40;;;6.43;;
359;SDS011;168;48.872;9.226;2024-02-14T06:17:16;6.37;;;5.77;;
359;SDS011;168;48.872;9.226;2024-02-14T06:19:43;10.63;;;5.80;;
359;SDS011;168;48.872;9.226;2024-02-14T06:22:11;7.07;;;5.83;;
359;SDS011;168;48.872;9.226;2024-02-14T06:24:39;7.47;;;5.80;;
359;SDS011;168;48.872;9.226;2024-02-14T06:27:07;7.63;;;5.70;;
359;SDS011;168;48.872;9.226;2024-02-14T06:29:34;6.30;;;5.60;;
359;SDS011;168;48.872;9.226;2024-02-14T06:32:01;8.40;;;5.10;;
359;SDS011;168;48.872;9.226;2024-02-14T06:34:29;7.67;;;5.83;;
359;SDS011;168;48.872;9.226;2024-02-14T06:36:57;7.37;;;6.47;;
359;SDS011;168;48.872;9.226;2024-02-14T06:39:24;9.60;;;6.33;;
359;SDS011;168;48.872;9.226;2024-02-14T06:41:53;8.17;;;6.77;;
359;SDS011;168;48.872;9.226;2024-02-14T06:44:20;7.23;;;5.83;;
359;SDS011;168;48.872;9.226;2024-02-14T06:46:47;8.03;;;5.53;;
359;SDS011;168;48.872;9.226;2024-02-14T06:49:15;7.60;;;5.87;;
359;SDS011;168;48.872;9.226;2024-02-14T06:51:42;8.90;;;5.77;;
359;SDS011;168;48.872;9.226;2024-02-14T06:54:10;8.00;;;6.20;;
359;SDS011;168;48.872;9.226;2024-02-14T06:56:38;8.13;;;6.33;;
359;SDS011;168;48.872;9.226;2024-02-14T06:59:06;9.20;;;6.30;;
359;SDS011;168;48.872;9.226;2024-02-14T07:01:34;8.57;;;6.27;;
359;SDS011;168;48.872;9.226;2024-02-14T07:04:01;6.40;;;5.27;;
359;SDS011;168;48.872;9.226;2024-02-14T07:06:29;9.00;;;6.27;;
359;SDS011;168;48.872;9.226;2024-02-14T07:08:56;7.00;;;5.63;;
359;SDS011;168;48.872;9.226;2024-02-14T07:11:23;7.00;;;6.30;;
359;SDS011;168;48.872;9.226;2024-02-14T07:13:50;7.07;;;5.80;;
359;SDS011;168;48.872;9.226;2024-02-14T07:16:19;7.17;;;5.60;;
359;SDS011;168;48.872;9.226;2024-02-14T07:18:46;6.00;;;4.97;;
359;SDS011;168;48.872;9.226;2024-02-14T07:21:14;6.33;;;5.00;;
359;SDS011;168;48.872;9.226;2024-02-14T07:23:42;8.10;;;5.90;;
359;SDS011;168;48.872;9.226;2024-02-14T07:26:09;6.90;;;5.60;;
359;SDS011;168;48.872;9.226;2024-02-14T07:28:37;7.37;;;6.23;;
359;SDS011;168;48.872;9.226;2024-02-14T07:31:04;7.40;;;5.73;;
359;SDS011;168;48.872;9.226;2024-02-14T07:33:33;6.90;;;6.20;;
359;SDS011;168;48.872;9.226;2024-02-14T07:36:00;7.93;;;5.80;;
359;SDS011;168;48.872;9.226;2024-02-14T07:38:27;9.13;;;5.63;;
359;SDS011;168;48.872;9.226;2024-02-14T07:40:55;5.73;;;5.13;;
359;SDS011;168;48.872;9.226;2024-02-14T07:43:22;8.47;;;5.33;;
359;SDS011;168;48.872;9.226;2024-02-14T07:45:49;8.93;;;6.17;;
359;SDS011;168;48.872;9.226;2024-02-14T07:48:16;9.07;;;6.20;;
359;SDS011;168;48.872;9.226;2024-02-14T07:50:45;12.50;;;6.00;;
359;SDS011;168;48.872;9.226;2024-02-14T07:53:13;11.50;;;7.60;;
359;SDS011;168;48.872;9.226;2024-02-14T07:55:40;9.20;;;6.10;;
359;SDS011;168;48.872;9.226;2024-02-14T07:58:07;6.03;;;5.43;;
359;SDS011;168;48.872;9.226;2024-02-14T08:00:35;7.20;;;5.83;;
359;SDS011;168;48.872;9.226;2024-02-14T08:03:02;9.23;;;5.50;;
359;SDS011;168;48.872;9.226;2024-02-14T08:05:31;8.07;;;5.67;;
359;SDS011;168;48.872;9.226;2024-02-14T08:08:00;6.43;;;5.10;;
359;SDS011;168;48.872;9.226;2024-02-14T08:10:27;7.10;;;4.73;;
359;SDS011;168;48.872;9.226;2024-02-14T08:12:55;8.20;;;5.80;;
359;SDS011;168;48.872;9.226;2024-02-14T08:15:22;7.03;;;5.77;;
359;SDS011;168;48.872;9.226;2024-02-14T08:17:49;6.07;;;4.57;;
359;SDS011;168;48.872;9.226;2024-02-14T08:20:20;7.50;;;5.27;;
359;SDS011;168;48.872;9.226;2024-02-14T08:22:48;8.70;;;5.33;;
359;SDS011;168;48.872;9.226;2024-02-14T08:25:17;8.03;;;5.07;;
359;SDS011;168;48.872;9.226;2024-02-14T08:27:44;6.30;;;4.97;;
359;SDS011;168;48.872;9.226;2024-02-14T08:30:13;6.20;;;5.23;;
359;SDS011;168;48.872;9.226;2024-02-14T08:32:40;7.40;;;5.30;;
359;SDS011;168;48.872;9.226;2024-02-14T08:35:08;5.90;;;4.70;;
359;SDS011;168;48.872;9.226;2024-02-14T08:37:40;6.10;;;5.47;;
359;SDS011;168;48.872;9.226;2024-02-14T08:40:07;8.70;;;5.17;;
359;SDS011;168;48.872;9.226;2024-02-14T08:42:39;6.33;;;5.23;;
359;SDS011;168;48.872;9.226;2024-02-14T08:45:06;10.33;;;5.23;;
359;SDS011;168;48.872;9.226;2024-02-14T08:47:35;8.20;;;5.80;;
359;SDS011;168;48.872;9.226;2024-02-14T08:50:03;8.10;;;5.63;;
359;SDS011;168;48.872;9.226;2024-02-14T08:52:30;9.20;;;5.20;;
359;SDS011;168;48.872;9.226;2024-02-14T08:54:58;10.90;;;6.20;;
359;SDS011;168;48.872;9.226;2024-02-14T08:57:25;10.23;;;6.40;;
359;SDS011;168;48.872;9.226;2024-02-14T08:59:54;11.00;;;7.07;;
359;SDS011;168;48.872;9.226;2024-02-14T09:02:21;9.10;;;6.03;;
359;SDS011;168;48.872;9.226;2024-02-14T09:04:51;9.03;;;6.60;;
359;SDS011;168;48.872;9.226;2024-02-14T09:07:18;7.60;;;6.23;;
359;SDS011;168;48.872;9.226;2024-02-14T09:09:45;9.87;;;6.20;;
359;SDS011;168;48.872;9.226;2024-02-14T09:12:13;7.57;;;6.03;;
359;SDS011;168;48.872;9.226;2024-02-14T09:14:40;7.97;;;6.03;;
359;SDS011;168;48.872;9.226;2024-02-14T09:17:09;11.70;;;7.77;;
359;SDS011;168;48.872;9.226;2024-02-14T09:19:37;10.70;;;6.63;;
359;SDS011;168;48.872;9.226;2024-02-14T09:22:04;8.07;;;6.27;;
359;SDS011;168;48.872;9.226;2024-02-14T09:24:32;11.53;;;6.57;;
359;SDS011;168;48.872;9.226;2024-02-14T09:26:59;14.20;;;6.43;;
359;SDS011;168;48.872;9.226;2024-02-14T09:29:28;10.23;;;6.20;;
359;SDS011;168;48.872;9.226;2024-02-14T09:31:55;8.50;;;5.97;;
359;SDS011;168;48.872;9.226;2024-02-14T09:34:23;11.70;;;6.07;;
359;SDS011;168;48.872;9.226;2024-02-14T09:36:52;8.00;;;5.80;;
359;SDS011;168;48.872;9.226;2024-02-14T09:39:22;8.50;;;6.67;;
359;SDS011;168;48.872;9.226;2024-02-14T09:41:51;9.70;;;6.23;;
359;SDS011;168;48.872;9.226;2024-02-14T09:44:21;8.83;;;5.83;;
359;SDS011;168;48.872;9.226;2024-02-14T09:46:49;7.90;;;5.57;;
359;SDS011;168;48.872;9.226;2024-02-14T09:49:16;10.23;;;6.13;;
359;SDS011;168;48.872;9.226;2024-02-14T09:51:47;9.50;;;5.63;;
359;SDS011;168;48.872;9.226;2024-02-14T09:54:16;8.23;;;6.10;;
359;SDS011;168;48.872;9.226;2024-02-14T09:56:45;8.00;;;5.30;;
359;SDS011;168;48.872;9.226;2024-02-14T09:59:19;7.93;;;5.20;;
359;SDS011;168;48.872;9.226;2024-02-14T10:01:46;5.33;;;4.40;;
359;SDS011;168;48.872;9.226;2024-02-14T10:04:16;6.03;;;4.90;;
359;SDS011;168;48.872;9.226;2024-02-14T10:06:44;8.43;;;5.00;;
359;SDS011;168;48.872;9.226;2024-02-14T10:09:17;8.07;;;6.10;;
359;SDS011;168;48.872;9.226;2024-02-14T10:11:46;8.27;;;5.50;;
359;SDS011;168;48.872;9.226;2024-02-14T10:14:13;7.80;;;5.13;;
359;SDS011;168;48.872;9.226;2024-02-14T10:16:41;8.30;;;4.90;;
359;SDS011;168;48.872;9.226;2024-02-14T10:19:14;6.43;;;4.70;;
359;SDS011;168;48.872;9.226;2024-02-14T10:21:42;9.90;;;5.37;;
359;SDS011;168;48.872;9.226;2024-02-14T10:24:11;6.33;;;4.90;;
359;SDS011;168;48.872;9.226;2024-02-14T10:26:39;9.73;;;4.40;;
359;SDS011;168;48.872;9.226;2024-02-14T10:29:08;5.37;;;3.60;;
359;SDS011;168;48.872;9.226;2024-02-14T10:31:40;6.80;;;3.60;;
359;SDS011;168;48.872;9.226;2024-02-14T10:34:07;7.07;;;4.23;;
359;SDS011;168;48.872;9.226;2024-02-14T10:36:35;6.93;;;3.20;;
359;SDS011;168;48.872;9.226;2024-02-14T10:39:05;3.20;;;2.40;;
359;SDS011;168;48.872;9.226;2024-02-14T10:41:36;2.43;;;1.47;;
359;SDS011;168;48.872;9.226;2024-02-14T10:44:04;4.47;;;2.27;;
359;SDS011;168;48.872;9.226;2024-02-14T10:46:32;2.60;;;1.60;;
359;SDS011;168;48.872;9.226;2024-02-14T10:49:02;2.70;;;1.50;;
359;SDS011;168;48.872;9.226;2024-02-14T10:51:31;3.60;;;1.40;;
359;SDS011;168;48.872;9.226;2024-02-14T10:54:01;3.47;;;1.70;;
359;SDS011;168;48.872;9.226;2024-02-14T10:56:32;2.27;;;1.40;;
359;SDS011;168;48.872;9.226;2024-02-14T10:59:00;3.27;;;1.50;;
359;SDS011;168;48.872;9.226;2024-02-14T11:01:29;2.77;;;1.50;;
359;SDS011;168;48.872;9.226;2024-02-14T11:03:58;3.33;;;1.50;;
359;SDS011;168;48.872;9.226;2024-02-14T11:06:26;2.47;;;1.40;;
359;SDS011;168;48.872;9.226;2024-02-14T11:08:55;2.10;;;1.40;;
359;SDS011;168;48.872;9.226;2024-02-14T11:11:24;3.70;;;1.60;;
359;SDS011;168;48.872;9.226;2024-02-14T11:13:52;4.10;;;1.90;;
359;SDS011;168;48.872;9.226;2024-02-14T11:16:24;3.10;;;1.77;;
359;SDS011;168;48.872;9.226;2024-02-14T11:18:53;3.17;;;1.50;;
359;SDS011;168;48.872;9.226;2024-02-14T11:21:27;2.90;;;1.23;;
359;SDS011;168;48.872;9.226;2024-02-14T11:23:56;2.10;;;1.33;;
359;SDS011;168;48.872;9.226;2024-02-14T11:26:24;1.93;;;1.10;;
359;SDS011;168;48.872;9.226;2024-02-14T11:28:59;2.40;;;1.30;;
359;SDS011;168;48.872;9.226;2024-02-14T11:31:32;1.77;;;1.00;;
359;SDS011;168;48.872;9.226;2024-02-14T11:34:03;2.40;;;1.40;;
359;SDS011;168;48.872;9.226;2024-02-14T11:36:31;2.43;;;1.20;;
359;SDS011;168;48.872;9.226;2024-02-14T11:39:02;2.17;;;1.30;;
359;SDS011;168;48.872;9.226;2024-02-14T11:41:32;2.30;;;1.50;;
359;SDS011;168;48.872;9.226;2024-02-14T11:44:00;2.50;;;1.40;;
359;SDS011;168;48.872;9.226;2024-02-14T11:46:29;3.53;;;1.47;;
359;SDS011;168;48.872;9.226;2024-02-14T11:48:58;3.13;;;1.20;;
359;SDS011;168;48.872;9.226;2024-02-14T11:51:27;2.60;;;1.37;;
359;SDS011;168;48.872;9.226;2024-02-14T11:53:56;2.40;;;1.17;;
359;SDS011;168;48.872;9.226;2024-02-14T11:56:29;3.13;;;1.60;;
359;SDS011;168;48.872;9.226;2024-02-14T11:58:59;2.13;;;1.07;;
359;SDS011;168;48.872;9.226;2024-02-14T12:01:28;2.57;;;1.17;;
359;SDS011;168;48.872;9.226;2024-02-14T12:03:58;3.03;;;1.27;;
359;SDS011;168;48.872;9.226;2024-02-14T12:06:27;3.63;;;1.67;;
359;SDS011;168;48.872;9.226;2024-02-14T12:08:57;3.50;;;1.80;;
359;SDS011;168;48.872;9.226;2024-02-14T12:11:26;3.53;;;1.90;;
359;SDS011;168;48.872;9.226;2024-02-14T12:13:54;3.10;;;2.03;;
359;SDS011;168;48.872;9.226;2024-02-14T12:16:22;3.90;;;1.80;;
359;SDS011;168;48.872;9.226;2024-02-14T12:18:50;2.80;;;2.00;;
359;SDS011;168;48.872;9.226;2024-02-14T12:21:34;3.43;;;1.83;;
359;SDS011;168;48.872;9.226;2024-02-14T12:24:03;5.83;;;2.13;;
359;SDS011;168;48.872;9.226;2024-02-14T12:26:31;3.80;;;2.00;;
359;SDS011;168;48.872;9.226;2024-02-14T12:29:00;2.70;;;1.90;;
359;SDS011;168;48.872;9.226;2024-02-14T12:31:29;5.00;;;1.70;;
359;SDS011;168;48.872;9.226;2024-02-14T12:33:57;3.50;;;2.20;;
359;SDS011;168;48.872;9.226;2024-02-14T12:36:28;4.17;;;2.10;;
359;SDS011;168;48.872;9.226;2024-02-14T12:38:56;2.70;;;1.90;;
359;SDS011;168;48.872;9.226;2024-02-14T12:41:23;5.77;;;1.80;;
359;SDS011;168;48.872;9.226;2024-02-14T12:43:51;2.50;;;1.40;;
359;SDS011;168;48.872;9.226;2024-02-14T12:46:19;2.30;;;1.50;;
359;SDS011;168;48.872;9.226;2024-02-14T12:48:46;2.50;;;1.30;;
359;SDS011;168;48.872;9.226;2024-02-14T12:51:13;2.13;;;0.97;;
359;SDS011;168;48.872;9.226;2024-02-14T12:53:42;2.53;;;1.00;;
359;SDS011;168;48.872;9.226;2024-02-14T12:56:10;2.60;;;0.93;;
359;SDS011;168;48.872;9.226;2024-02-14T12:58:37;2.60;;;1.00;;
359;SDS011;168;48.872;9.226;2024-02-14T13:01:04;1.60;;;0.70;;
359;SDS011;168;48.872;9.226;2024-02-14T13:03:33;2.13;;;0.87;;
359;SDS011;168;48.872;9.226;2024-02-14T13:06:01;3.77;;;1.57;;
359;SDS011;168;48.872;9.226;2024-02-14T13:08:28;2.03;;;0.93;;
359;SDS011;168;48.872;9.226;2024-02-14T13:10:57;1.90;;;0.90;;
359;SDS011;168;48.872;9.226;2024-02-14T13:13:24;3.40;;;0.90;;
359;SDS011;168;48.872;9.226;2024-02-14T13:15:52;2.93;;;1.17;;
359;SDS011;168;48.872;9.226;2024-02-14T13:18:19;2.10;;;1.20;;
359;SDS011;168;48.872;9.226;2024-02-14T13:20:47;3.03;;;1.23;;
359;SDS011;168;48.872;9.226;2024-02-14T13:23:19;2.00;;;0.97;;
359;SDS011;168;48.872;9.226;2024-02-14T13:25:46;1.93;;;0.93;;
359;SDS011;168;48.872;9.226;2024-02-14T13:28:15;2.60;;;0.87;;
359;SDS011;168;48.872;9.226;2024-02-14T13:30:43;2.40;;;0.80;;
359;SDS011;168;48.872;9.226;2024-02-14T13:35:40;2.10;;;1.00;;
359;SDS011;168;48.872;9.226;2024-02-14T13:38:07;1.40;;;0.60;;
359;SDS011;168;48.872;9.226;2024-02-14T13:40:36;2.00;;;0.80;;
359;SDS011;168;48.872;9.226;2024-02-14T13:43:03;1.60;;;0.70;;
359;SDS011;168;48.872;9.226;2024-02-14T13:45:40;2.47;;;1.07;;
359;SDS011;168;48.872;9.226;2024-02-14T13:48:09;2.00;;;0.90;;
359;SDS011;168;48.872;9.226;2024-02-14T13:50:37;2.50;;;1.00;;
359;SDS011;168;48.872;9.226;2024-02-14T13:53:04;2.80;;;1.10;;
359;SDS011;168;48.872;9.226;2024-02-14T13:55:33;1.50;;;0.70;;
359;SDS011;168;48.872;9.226;2024-02-14T13:58:00;4.43;;;3.10;;
359;SDS011;168;48.872;9.226;2024-02-14T14:00:27;11.60;;;7.60;;
359;SDS011;168;48.872;9.226;2024-02-14T14:02:56;2.83;;;1.23;;
359;SDS011;168;48.872;9.226;2024-02-14T14:05:23;2.80;;;0.77;;
359;SDS011;168;48.872;9.226;2024-02-14T14:07:51;5.10;;;0.93;;
359;SDS011;168;48.872;9.226;2024-02-14T14:10:18;2.50;;;1.27;;
359;SDS011;168;48.872;9.226;2024-02-14T14:12:46;2.67;;;1.00;;
359;SDS011;168;48.872;9.226;2024-02-14T14:15:13;2.20;;;1.00;;
359;SDS011;168;48.872;9.226;2024-02-14T14:17:40;1.70;;;0.80;;
359;SDS011;168;48.872;9.226;2024-02-14T14:20:10;2.83;;;1.17;;
359;SDS011;168;48.872;9.226;2024-02-14T14:22:37;3.10;;;1.40;;
359;SDS011;168;48.872;9.226;2024-02-14T14:25:05;2.40;;;1.30;;
359;SDS011;168;48.872;9.226;2024-02-14T14:27:33;2.57;;;1.27;;
359;SDS011;168;48.872;9.226;2024-02-14T14:30:00;1.80;;;0.90;;
359;SDS011;168;48.872;9.226;2024-02-14T14:32:28;1.70;;;0.50;;
359;SDS011;168;48.872;9.226;2024-02-14T14:34:56;1.67;;;0.57;;
359;SDS011;168;48.872;9.226;2024-02-14T14:37:25;4.70;;;0.93;;
359;SDS011;168;48.872;9.226;2024-02-14T14:39:52;1.70;;;0.60;;
359;SDS011;168;48.872;9.226;2024-02-14T14:42:20;2.17;;;0.90;;
359;SDS011;168;48.872;9.226;2024-02-14T14:44:48;4.10;;;1.60;;
359;SDS011;168;48.872;9.226;2024-02-14T14:47:16;3.67;;;1.20;;
359;SDS011;168;48.872;9.226;2024-02-14T14:49:44;1.80;;;0.60;;
359;SDS011;168;48.872;9.226;2024-02-14T14:52:11;1.87;;;0.50;;
359;SDS011;168;48.872;9.226;2024-02-14T14:54:40;1.43;;;0.50;;
359;SDS011;168;48.872;9.226;2024-02-14T14:57:07;2.43;;;1.30;;
359;SDS011;168;48.872;9.226;2024-02-14T14:59:39;3.70;;;1.13;;
359;SDS011;168;48.872;9.226;2024-02-14T15:02:07;2.33;;;1.40;;
359;SDS011;168;48.872;9.226;2024-02-14T15:04:34;2.70;;;1.30;;
359;SDS011;168;48.872;9.226;2024-02-14T15:07:03;3.70;;;1.53;;
359;SDS011;168;48.872;9.226;2024-02-14T15:09:30;2.47;;;1.20;;
359;SDS011;168;48.872;9.226;2024-02-14T15:11:59;2.90;;;1.80;;
359;SDS011;168;48.872;9.226;2024-02-14T15:14:26;2.50;;;1.50;;
359;SDS011;168;48.872;9.226;2024-02-14T15:16:54;3.43;;;1.50;;
359;SDS011;168;48.872;9.226;2024-02-14T15:19:21;3.40;;;1.37;;
359;SDS011;168;48.872;9.226;2024-02-14T15:21:49;4.73;;;1.70;;
359;SDS011;168;48.872;9.226;2024-02-14T15:24:16;2.77;;;1.50;;
359;SDS011;168;48.872;9.226;2024-02-14T15:26:44;3.00;;;2.00;;
359;SDS011;168;48.872;9.226;2024-02-14T15:29:17;8.83;;;2.00;;
359;SDS011;168;48.872;9.226;2024-02-14T15:32:03;3.80;;;1.20;;
359;SDS011;168;48.872;9.226;2024-02-14T15:34:48;2.47;;;0.90;;
359;SDS011;168;48.872;9.226;2024-02-14T15:37:15;1.60;;;0.73;;
359;SDS011;168;48.872;9.226;2024-02-14T15:39:43;1.70;;;0.80;;
359;SDS011;168;48.872;9.226;2024-02-14T15:42:10;1.53;;;0.80;;
359;SDS011;168;48.872;9.226;2024-02-14T15:44:39;2.47;;;0.80;;
359;SDS011;168;48.872;9.226;2024-02-14T15:47:06;1.80;;;0.80;;
359;SDS011;168;48.872;9.226;2024-02-14T15:49:35;1.87;;;1.00;;
359;SDS011;168;48.872;9.226;2024-02-14T15:52:03;2.77;;;1.07;;